Time;durP1;ratioP1;P1;durP2;ratioP2;P2;SDS_P1;SDS_P2;PMS_P1;PMS_P2;Temp;Humidity;BMP_temperature;BMP_pressure;BME280_temperature;BME280_humidity;BME280_pressure;Samples;Min_cycle;Max_cycle;Signal;HPM_P1;HPM_P2
2021/09/04 00:00:35;;;;;;;4.93;4.37;;;19.40;73.30;;;;;;10455448;28;20217;-63
2021/09/04 00:05:58;;;;;;;4.97;3.90;;;19.30;73.10;;;;;;10454460;28;20204;-64
2021/09/04 00:11:21;;;;;;;4.73;3.90;;;19.40;71.90;;;;;;10491272;28;20224;-61
2021/09/04 00:16:43;;;;;;;4.50;4.10;;;19.40;72.90;;;;;;10497324;28;20232;-62
2021/09/04 00:22:06;;;;;;;5.03;3.77;;;19.30;73.00;;;;;;10461307;28;20571;-61
2021/09/04 00:27:28;;;;;;;4.30;3.90;;;19.30;72.40;;;;;;10453811;28;20209;-61
2021/09/04 00:32:51;;;;;;;4.93;4.37;;;19.40;72.70;;;;;;10479555;28;20584;-62
2021/09/04 00:38:14;;;;;;;4.40;4.00;;;19.30;73.10;;;;;;10497328;28;20243;-61
2021/09/04 00:43:36;;;;;;;4.20;3.80;;;19.30;72.90;;;;;;10452718;28;20196;-61
2021/09/04 00:48:59;;;;;;;4.53;4.10;;;19.30;72.60;;;;;;10453706;28;20217;-60
2021/09/04 00:54:22;;;;;;;4.60;4.17;;;19.40;73.30;;;;;;10455178;28;20194;-61
2021/09/04 00:59:45;;;;;;;4.47;4.07;;;19.30;73.20;;;;;;10453841;28;20681;-63
2021/09/04 01:05:08;;;;;;;4.30;3.87;;;19.40;72.40;;;;;;10489632;28;20217;-61
2021/09/04 01:10:32;;;;;;;4.40;3.70;;;19.40;73.90;;;;;;10486857;28;20212;-62
2021/09/04 01:15:54;;;;;;;3.90;3.50;;;19.30;73.30;;;;;;10436019;28;20201;-62
2021/09/04 01:21:17;;;;;;;4.57;4.17;;;19.30;72.40;;;;;;10430902;28;20228;-62
2021/09/04 01:26:40;;;;;;;4.03;3.50;;;19.40;73.30;;;;;;10454465;28;20204;-62
2021/09/04 01:32:02;;;;;;;3.90;3.50;;;19.30;73.40;;;;;;10453241;28;20217;-62
2021/09/04 01:37:24;;;;;;;4.03;3.30;;;19.30;72.50;;;;;;10452942;28;20696;-62
2021/09/04 01:42:49;;;;;;;4.07;3.67;;;19.40;72.50;;;;;;10452235;28;20201;-60
2021/09/04 01:48:11;;;;;;;3.87;3.33;;;19.40;73.20;;;;;;10453204;28;20220;-62
2021/09/04 01:53:33;;;;;;;4.23;3.43;;;19.30;73.10;;;;;;10451776;28;20228;-61
2021/09/04 01:58:56;;;;;;;3.47;3.17;;;19.30;72.10;;;;;;10452005;28;20719;-62
2021/09/04 02:04:18;;;;;;;3.40;3.10;;;19.40;73.10;;;;;;10452814;28;20193;-63
2021/09/04 02:09:40;;;;;;;3.13;2.83;;;19.30;73.10;;;;;;10499049;22;20239;-63
2021/09/04 02:15:07;;;;;;;4.00;3.63;;;19.30;72.50;;;;;;10492449;28;20208;-63
2021/09/04 02:20:30;;;;;;;3.87;3.40;;;19.30;73.40;;;;;;10451794;28;20235;-57
2021/09/04 02:25:52;;;;;;;3.53;3.10;;;19.30;73.50;;;;;;10450891;28;20208;-63
2021/09/04 02:31:16;;;;;;;3.57;3.27;;;19.30;72.70;;;;;;10488965;28;20216;-60
2021/09/04 02:36:38;;;;;;;3.27;2.97;;;19.30;72.70;;;;;;10494045;28;20196;-61
2021/09/04 02:42:00;;;;;;;3.87;3.20;;;19.30;73.30;;;;;;10488619;28;20192;-62
2021/09/04 02:47:23;;;;;;;4.00;3.00;;;19.30;73.10;;;;;;10492567;28;20580;-63
2021/09/04 02:52:46;;;;;;;3.43;3.13;;;19.30;72.30;;;;;;10490637;28;20221;-61
2021/09/04 02:58:08;;;;;;;3.20;2.80;;;19.30;73.10;;;;;;10491285;28;20216;-62
2021/09/04 03:03:31;;;;;;;3.10;2.80;;;19.30;73.30;;;;;;10491967;28;20196;-62
2021/09/04 03:08:54;;;;;;;3.60;3.30;;;19.30;72.40;;;;;;10491492;28;20229;-63
2021/09/04 03:14:16;;;;;;;3.63;2.83;;;19.40;73.00;;;;;;10491827;28;20212;-63
2021/09/04 03:19:40;;;;;;;3.30;3.00;;;19.30;73.40;;;;;;10490950;28;20219;-63
2021/09/04 03:25:02;;;;;;;3.63;3.07;;;19.30;73.00;;;;;;10491367;28;20604;-63
2021/09/04 03:30:25;;;;;;;3.30;3.00;;;19.30;72.90;;;;;;10490164;28;20600;-64
2021/09/04 03:35:49;;;;;;;3.43;2.90;;;19.30;73.40;;;;;;10495393;28;20552;-63
2021/09/04 03:41:11;;;;;;;3.60;2.90;;;19.30;73.30;;;;;;10498013;28;20212;-64
2021/09/04 03:46:33;;;;;;;3.20;2.90;;;19.30;72.00;;;;;;10497249;28;20200;-61
2021/09/04 03:51:56;;;;;;;3.10;2.50;;;19.30;72.90;;;;;;10497447;28;20220;-62
2021/09/04 03:57:18;;;;;;;3.00;2.60;;;19.30;73.10;;;;;;10497120;28;20217;-62
2021/09/04 04:02:41;;;;;;;3.03;2.73;;;19.30;72.60;;;;;;10497734;28;20184;-62
2021/09/04 04:08:04;;;;;;;2.90;2.60;;;19.30;72.70;;;;;;10496892;28;20234;-62
2021/09/04 04:13:27;;;;;;;2.43;2.23;;;19.30;73.30;;;;;;10497525;28;20300;-61
2021/09/04 04:18:49;;;;;;;2.77;2.57;;;19.30;73.10;;;;;;10496999;28;20308;-61
2021/09/04 04:24:12;;;;;;;2.80;2.43;;;19.30;72.20;;;;;;10497259;28;20196;-62
2021/09/04 04:29:34;;;;;;;2.77;2.57;;;19.30;73.10;;;;;;10496551;28;20216;-62
2021/09/04 04:34:56;;;;;;;2.77;2.43;;;19.30;73.20;;;;;;10495850;28;20189;-63
2021/09/04 04:40:20;;;;;;;2.63;2.43;;;19.40;72.30;;;;;;10493329;28;20208;-64
2021/09/04 04:45:42;;;;;;;2.60;2.40;;;19.30;73.00;;;;;;10493959;28;20254;-63
2021/09/04 04:51:04;;;;;;;2.70;2.50;;;19.30;73.30;;;;;;10494917;28;20708;-65
2021/09/04 04:56:27;;;;;;;2.53;2.33;;;19.30;72.80;;;;;;10493689;28;20197;-63
2021/09/04 05:01:49;;;;;;;2.90;2.60;;;19.30;72.50;;;;;;10490169;28;20185;-63
2021/09/04 05:07:11;;;;;;;2.40;2.20;;;19.30;73.20;;;;;;10495755;28;20224;-62
2021/09/04 05:12:35;;;;;;;3.03;2.33;;;19.30;73.30;;;;;;10494093;28;20285;-61
2021/09/04 05:17:57;;;;;;;2.60;2.40;;;19.30;72.40;;;;;;10486751;28;20220;-62
2021/09/04 05:23:19;;;;;;;2.67;2.43;;;19.30;73.20;;;;;;10495650;28;20196;-64
2021/09/04 05:28:42;;;;;;;2.43;2.23;;;19.30;73.30;;;;;;10493817;28;20238;-62
2021/09/04 05:34:04;;;;;;;2.63;2.30;;;19.30;72.40;;;;;;10491566;28;20224;-63
2021/09/04 05:39:27;;;;;;;2.97;2.40;;;19.30;73.00;;;;;;10493863;28;20216;-62
2021/09/04 05:44:50;;;;;;;2.60;2.13;;;19.30;73.20;;;;;;10489497;28;20192;-62
2021/09/04 05:50:12;;;;;;;2.37;2.10;;;19.30;73.20;;;;;;10491223;28;20224;-62
2021/09/04 05:55:34;;;;;;;2.33;2.13;;;19.30;72.90;;;;;;10493485;28;20195;-62
2021/09/04 06:00:58;;;;;;;2.03;1.83;;;19.30;73.40;;;;;;10493361;28;20218;-62
2021/09/04 06:06:20;;;;;;;2.10;1.80;;;19.30;73.00;;;;;;10493479;28;20196;-63
2021/09/04 06:11:42;;;;;;;3.03;2.20;;;19.30;73.10;;;;;;10493329;28;20220;-66
2021/09/04 06:17:06;;;;;;;2.20;2.00;;;19.30;73.60;;;;;;10486798;28;20203;-63
2021/09/04 06:22:28;;;;;;;3.03;1.97;;;19.30;73.30;;;;;;10514039;28;20207;-63
2021/09/04 06:27:50;;;;;;;3.10;1.97;;;19.30;72.70;;;;;;10502282;28;20245;-62
2021/09/04 06:33:13;;;;;;;3.70;2.17;;;19.30;73.30;;;;;;10492367;28;20229;-62
2021/09/04 06:38:35;;;;;;;2.47;1.77;;;19.30;73.40;;;;;;10492988;28;20877;-61
2021/09/04 06:43:57;;;;;;;2.10;1.93;;;19.30;72.20;;;;;;10492890;28;20189;-62
2021/09/04 06:49:21;;;;;;;2.03;1.83;;;19.30;73.20;;;;;;10492018;28;20220;-59
2021/09/04 06:54:43;;;;;;;2.73;2.03;;;19.30;73.30;;;;;;10492364;28;20565;-62
2021/09/04 07:00:06;;;;;;;7.20;2.90;;;19.30;72.50;;;;;;10491846;28;20243;-60
2021/09/04 07:05:30;;;;;;;3.43;2.03;;;19.30;73.20;;;;;;10498183;28;20188;-63
2021/09/04 07:10:52;;;;;;;21.77;4.93;;;19.20;73.20;;;;;;10502628;28;20426;-64
2021/09/04 07:16:14;;;;;;;100.23;11.03;;;19.70;69.80;;;;;;10525585;28;20200;-62
2021/09/04 07:21:37;;;;;;;68.33;9.43;;;19.40;69.80;;;;;;10513666;28;20403;-66
2021/09/04 07:27:00;;;;;;;45.50;7.07;;;19.90;67.80;;;;;;10497132;28;20489;-65
2021/09/04 07:32:22;;;;;;;42.73;6.03;;;19.50;68.40;;;;;;10497667;28;20217;-68
2021/09/04 07:37:45;;;;;;;23.80;4.50;;;19.40;69.20;;;;;;10466452;28;20213;-67
2021/09/04 07:43:08;;;;;;;13.33;3.27;;;19.30;69.60;;;;;;10499170;28;20199;-67
2021/09/04 07:48:30;;;;;;;14.90;3.33;;;19.30;69.20;;;;;;10499372;28;21070;-66
2021/09/04 07:53:54;;;;;;;8.27;2.17;;;19.20;69.30;;;;;;10498800;28;20212;-72
2021/09/04 07:59:16;;;;;;;14.43;2.57;;;19.30;69.90;;;;;;10497887;28;20761;-71
2021/09/04 08:04:38;;;;;;;7.07;2.77;;;19.50;69.40;;;;;;10496905;28;20564;-71
2021/09/04 08:10:02;;;;;;;7.87;2.53;;;19.40;69.00;;;;;;10523518;22;20239;-70
2021/09/04 08:15:24;;;;;;;5.20;2.40;;;19.30;68.20;;;;;;10497117;28;20211;-71
2021/09/04 08:20:46;;;;;;;6.40;2.40;;;19.20;67.10;;;;;;10497202;28;20216;-68
2021/09/04 08:26:10;;;;;;;5.07;2.80;;;19.10;66.50;;;;;;10498801;28;20661;-68
2021/09/04 08:31:32;;;;;;;5.57;3.07;;;19.10;66.00;;;;;;10496706;28;20209;-67
2021/09/04 08:36:54;;;;;;;10.07;3.67;;;19.10;66.20;;;;;;10496844;28;20197;-67
2021/09/04 08:42:18;;;;;;;5.13;3.40;;;19.10;65.40;;;;;;10458890;28;20216;-67
2021/09/04 08:47:40;;;;;;;10.33;3.90;;;19.10;65.30;;;;;;10455862;28;20192;-67
2021/09/04 08:53:03;;;;;;;8.37;3.73;;;19.00;65.50;;;;;;10482615;28;20217;-67
2021/09/04 08:58:26;;;;;;;7.27;3.73;;;19.00;65.50;;;;;;10495549;28;20705;-67
2021/09/04 09:03:49;;;;;;;6.40;3.83;;;19.00;65.50;;;;;;10496409;28;20188;-67
2021/09/04 09:09:16;;;;;;;8.63;4.17;;;19.00;65.50;;;;;;10494999;28;20216;-68
2021/09/04 09:14:56;;;;;;;8.50;4.20;;;19.00;65.20;;;;;;10493262;28;20684;-67
2021/09/04 09:20:24;;;;;;;8.77;4.23;;;19.00;64.70;;;;;;10490971;28;20557;-67
2021/09/04 09:25:48;;;;;;;11.20;5.27;;;19.00;64.70;;;;;;10494102;28;20199;-67
2021/09/04 09:31:11;;;;;;;7.03;4.80;;;19.00;65.20;;;;;;10493761;28;20220;-67
2021/09/04 09:36:50;;;;;;;9.27;4.97;;;19.00;64.30;;;;;;10494944;28;20208;-67
2021/09/04 09:42:14;;;;;;;7.67;4.73;;;19.00;64.10;;;;;;10493590;28;20715;-68
2021/09/04 09:47:51;;;;;;;10.57;5.40;;;19.00;64.40;;;;;;10494355;28;20215;-67
2021/09/04 09:53:13;;;;;;;8.10;5.20;;;19.00;64.80;;;;;;10494065;28;20212;-68
2021/09/04 09:58:39;;;;;;;10.27;5.77;;;19.00;64.30;;;;;;10475029;28;20227;-68
2021/09/04 10:04:03;;;;;;;9.03;5.40;;;18.90;63.80;;;;;;10448836;28;20569;-68
2021/09/04 10:09:25;;;;;;;9.30;6.30;;;18.90;63.30;;;;;;10450208;28;20228;-67
2021/09/04 10:14:50;;;;;;;9.80;6.10;;;18.90;63.40;;;;;;10449965;28;20213;-67
2021/09/04 10:20:15;;;;;;;11.17;6.07;;;18.90;63.30;;;;;;10465174;28;20221;-67
2021/09/04 10:25:37;;;;;;;11.97;5.77;;;18.90;63.40;;;;;;10491423;28;20184;-67
2021/09/04 10:31:00;;;;;;;10.43;5.73;;;18.90;63.40;;;;;;10492593;28;20208;-67
2021/09/04 10:36:26;;;;;;;10.10;5.83;;;19.00;63.50;;;;;;10493774;28;20199;-68
2021/09/04 10:41:49;;;;;;;10.10;5.80;;;19.00;63.40;;;;;;10492780;28;20219;-68
2021/09/04 10:47:12;;;;;;;8.63;5.80;;;18.90;63.60;;;;;;10500698;28;20193;-68
2021/09/04 10:52:56;;;;;;;10.67;5.90;;;18.90;63.50;;;;;;10499699;28;20243;-67
2021/09/04 10:58:19;;;;;;;10.83;6.00;;;18.90;63.50;;;;;;10500725;28;20292;-68
2021/09/04 11:03:42;;;;;;;9.80;6.10;;;18.90;63.80;;;;;;10499989;28;20189;-66
2021/09/04 11:09:06;;;;;;;9.07;5.37;;;18.90;63.80;;;;;;10499764;28;20220;-66
2021/09/04 11:14:28;;;;;;;12.73;6.30;;;18.90;64.00;;;;;;10500023;28;20231;-66
2021/09/04 11:19:53;;;;;;;9.17;6.17;;;18.90;64.20;;;;;;10498007;28;20270;-67
2021/09/04 11:25:17;;;;;;;8.90;5.67;;;19.00;64.60;;;;;;10499887;28;20192;-67
2021/09/04 11:30:50;;;;;;;11.57;6.33;;;19.00;66.00;;;;;;10498541;28;20299;-66
2021/09/04 11:36:12;;;;;;;9.10;5.97;;;19.00;67.30;;;;;;10499317;28;20195;-68
2021/09/04 11:41:46;;;;;;;10.13;6.03;;;19.00;67.30;;;;;;10499094;28;20215;-66
2021/09/04 11:47:12;;;;;;;10.43;5.83;;;19.00;66.90;;;;;;10498583;28;20188;-67
2021/09/04 11:52:37;;;;;;;11.20;5.97;;;19.00;66.80;;;;;;10494244;28;20560;-67
2021/09/04 11:58:03;;;;;;;12.10;6.27;;;19.00;66.90;;;;;;10495108;28;20219;-67
2021/09/04 12:03:27;;;;;;;9.23;6.13;;;19.00;67.00;;;;;;10496874;28;20870;-66
2021/09/04 12:08:49;;;;;;;10.87;6.50;;;19.00;67.10;;;;;;10498662;28;20576;-66
2021/09/04 12:14:13;;;;;;;11.60;5.70;;;19.00;67.40;;;;;;10498006;28;20704;-67
2021/09/04 12:19:38;;;;;;;12.33;6.23;;;19.00;67.50;;;;;;10497011;28;20246;-65
2021/09/04 12:25:01;;;;;;;8.73;5.87;;;19.10;67.80;;;;;;10497322;28;20249;-67
2021/09/04 12:30:25;;;;;;;11.20;6.47;;;19.00;67.80;;;;;;10496772;28;20212;-67
2021/09/04 12:35:49;;;;;;;11.40;6.60;;;19.10;68.30;;;;;;10497198;28;20235;-67
2021/09/04 12:41:14;;;;;;;7.93;6.00;;;19.10;68.70;;;;;;10496115;28;20208;-66
2021/09/04 12:46:39;;;;;;;8.30;5.53;;;19.10;70.00;;;;;;10497330;28;20297;-67
2021/09/04 12:52:13;;;;;;;11.27;6.10;;;19.10;69.20;;;;;;10496196;28;20234;-67
2021/09/04 12:57:35;;;;;;;7.70;5.70;;;19.00;68.80;;;;;;10495778;28;20196;-67
2021/09/04 13:02:59;;;;;;;9.53;5.40;;;19.10;69.00;;;;;;10494567;28;20264;-67
2021/09/04 13:08:21;;;;;;;8.60;5.63;;;19.00;69.60;;;;;;10495405;28;20231;-67
2021/09/04 13:13:43;;;;;;;8.63;5.37;;;19.00;69.40;;;;;;10494742;28;20205;-66
2021/09/04 13:19:06;;;;;;;9.40;5.87;;;19.00;69.10;;;;;;10495507;28;20219;-67
2021/09/04 13:24:28;;;;;;;7.23;5.03;;;19.00;69.70;;;;;;10494817;28;20191;-67
2021/09/04 13:29:50;;;;;;;9.00;5.23;;;19.00;69.90;;;;;;10493315;28;20208;-67
2021/09/04 13:35:15;;;;;;;8.10;5.07;;;19.00;69.50;;;;;;10494747;28;20208;-67
2021/09/04 13:40:37;;;;;;;7.17;5.00;;;18.90;69.60;;;;;;10494132;28;20216;-66
2021/09/04 13:45:59;;;;;;;5.90;4.90;;;18.90;70.10;;;;;;10496040;28;20180;-66
2021/09/04 13:51:22;;;;;;;7.33;5.13;;;18.90;69.70;;;;;;10494735;28;20226;-67
2021/09/04 13:56:44;;;;;;;6.20;4.97;;;18.90;69.60;;;;;;10494563;28;20653;-68
2021/09/04 14:02:06;;;;;;;8.40;5.07;;;18.90;69.20;;;;;;10493733;28;20708;-67
2021/09/04 14:07:30;;;;;;;7.57;4.83;;;18.90;69.10;;;;;;10492529;28;20218;-67
2021/09/04 14:12:52;;;;;;;6.63;5.00;;;18.90;69.30;;;;;;10553369;22;20231;-67
2021/09/04 14:18:14;;;;;;;6.40;4.70;;;18.90;69.20;;;;;;10501723;28;20203;-68
2021/09/04 14:23:38;;;;;;;5.73;4.50;;;18.90;69.10;;;;;;10492821;28;20193;-67
2021/09/04 14:29:00;;;;;;;5.20;4.30;;;18.90;69.30;;;;;;10492469;28;20208;-68
2021/09/04 14:34:22;;;;;;;7.67;5.13;;;18.90;69.50;;;;;;10493739;28;20220;-68
2021/09/04 14:39:46;;;;;;;5.93;4.13;;;18.90;69.30;;;;;;10492775;28;20216;-68
2021/09/04 14:45:09;;;;;;;7.90;4.60;;;18.80;69.30;;;;;;10490465;28;20207;-68
2021/09/04 14:50:32;;;;;;;5.40;4.83;;;18.90;69.20;;;;;;10490490;28;20212;-68
2021/09/04 14:55:55;;;;;;;5.00;4.50;;;18.80;69.00;;;;;;10489423;28;20212;-67
2021/09/04 15:01:17;;;;;;;6.23;4.40;;;18.80;69.00;;;;;;10489934;28;20722;-67
2021/09/04 15:06:39;;;;;;;4.93;4.43;;;18.80;69.00;;;;;;10489881;28;20241;-68
2021/09/04 15:12:03;;;;;;;5.87;4.13;;;18.80;68.80;;;;;;10488317;28;20228;-68
2021/09/04 15:17:26;;;;;;;5.60;4.37;;;18.80;68.70;;;;;;10485596;28;20671;-68
2021/09/04 15:22:48;;;;;;;5.57;4.00;;;18.80;68.60;;;;;;10483968;28;20224;-68
2021/09/04 15:28:11;;;;;;;6.00;4.40;;;18.80;68.80;;;;;;10486154;28;20201;-68
2021/09/04 15:33:34;;;;;;;5.40;4.30;;;18.80;68.60;;;;;;10490833;28;20224;-67
2021/09/04 15:38:56;;;;;;;4.87;4.00;;;18.80;68.60;;;;;;10493013;28;20212;-68
2021/09/04 15:44:19;;;;;;;6.37;4.70;;;18.80;68.40;;;;;;10492681;28;20200;-68
2021/09/04 15:49:41;;;;;;;5.40;4.10;;;18.80;68.60;;;;;;10493147;28;20220;-68
2021/09/04 15:55:04;;;;;;;7.43;4.40;;;18.80;69.20;;;;;;10488607;28;20212;-68
2021/09/04 16:00:27;;;;;;;7.83;4.50;;;18.80;68.50;;;;;;10450047;28;20216;-67
2021/09/04 16:05:50;;;;;;;4.97;3.87;;;18.80;68.70;;;;;;10449203;28;20193;-68
2021/09/04 16:11:12;;;;;;;5.70;4.53;;;18.80;68.60;;;;;;10482665;28;20297;-67
2021/09/04 16:16:35;;;;;;;5.73;3.97;;;18.80;68.60;;;;;;10493046;28;20212;-68
2021/09/04 16:21:58;;;;;;;5.40;4.37;;;18.70;68.40;;;;;;10492451;28;20219;-68
2021/09/04 16:27:25;;;;;;;4.80;4.17;;;18.80;68.50;;;;;;10487783;28;20229;-68
2021/09/04 16:32:48;;;;;;;5.33;4.83;;;18.80;69.20;;;;;;10461043;28;20220;-68
2021/09/04 16:38:11;;;;;;;4.83;4.23;;;18.80;69.80;;;;;;10491798;28;20215;-68
2021/09/04 16:43:33;;;;;;;7.07;4.80;;;18.80;69.30;;;;;;10489459;28;20207;-68
2021/09/04 16:48:56;;;;;;;5.83;4.30;;;18.80;68.70;;;;;;10490786;28;20386;-67
2021/09/04 16:54:20;;;;;;;6.17;4.90;;;18.80;68.70;;;;;;10490218;28;20227;-68
2021/09/04 16:59:42;;;;;;;5.83;4.80;;;18.80;68.70;;;;;;10488557;28;20213;-68
2021/09/04 17:05:07;;;;;;;5.83;4.50;;;18.80;68.80;;;;;;10489801;28;20184;-68
2021/09/04 17:10:29;;;;;;;6.03;5.13;;;18.80;68.90;;;;;;10486455;28;20679;-68
2021/09/04 17:15:51;;;;;;;5.73;4.77;;;18.80;69.00;;;;;;10487420;28;20372;-68
2021/09/04 17:21:18;;;;;;;5.93;4.37;;;18.80;69.10;;;;;;10487698;28;20255;-68
2021/09/04 17:26:40;;;;;;;6.47;5.67;;;18.80;69.10;;;;;;10476918;28;20429;-71
2021/09/04 17:32:02;;;;;;;5.60;4.90;;;19.10;68.30;;;;;;10480293;28;20223;-70
2021/09/04 17:37:26;;;;;;;5.40;4.63;;;19.00;68.60;;;;;;10493739;28;20191;-68
2021/09/04 17:42:48;;;;;;;6.80;4.40;;;18.90;69.00;;;;;;10485852;28;20590;-68
2021/09/04 17:48:10;;;;;;;6.03;5.03;;;18.90;69.30;;;;;;10484682;28;20192;-68
2021/09/04 17:53:34;;;;;;;7.27;4.40;;;18.90;69.50;;;;;;10451790;28;20213;-66
2021/09/04 17:58:56;;;;;;;7.10;4.80;;;18.80;69.50;;;;;;10452237;28;20460;-70
2021/09/04 18:04:18;;;;;;;5.87;4.43;;;18.80;69.60;;;;;;10451655;28;20913;-68
2021/09/04 18:09:42;;;;;;;5.23;4.70;;;18.80;69.70;;;;;;10459945;28;20232;-67
2021/09/04 18:15:05;;;;;;;6.53;5.00;;;18.80;69.60;;;;;;10492154;28;20225;-68
2021/09/04 18:20:28;;;;;;;8.10;4.73;;;18.80;69.50;;;;;;10493318;28;20215;-67
2021/09/04 18:25:51;;;;;;;6.07;5.03;;;18.80;69.40;;;;;;10491632;28;20197;-66
2021/09/04 18:31:13;;;;;;;5.90;5.27;;;18.80;69.40;;;;;;10490450;28;20710;-66
2021/09/04 18:36:36;;;;;;;6.90;5.00;;;18.80;69.50;;;;;;10486691;28;20220;-67
2021/09/04 18:41:59;;;;;;;7.47;5.40;;;18.80;69.50;;;;;;10490726;28;20569;-67
2021/09/04 18:47:21;;;;;;;7.20;5.07;;;18.80;69.60;;;;;;10493077;28;20200;-67
2021/09/04 18:52:43;;;;;;;5.73;4.77;;;18.80;69.80;;;;;;10492967;28;20218;-67
2021/09/04 18:58:07;;;;;;;7.93;5.13;;;18.80;69.90;;;;;;10494197;28;20207;-67
2021/09/04 19:03:29;;;;;;;5.77;4.80;;;18.80;70.10;;;;;;10494349;28;20196;-67
2021/09/04 19:08:51;;;;;;;5.93;5.33;;;18.80;70.10;;;;;;10502818;28;20224;-67
2021/09/04 19:14:15;;;;;;;7.43;5.67;;;18.80;70.90;;;;;;10501930;28;20216;-67
2021/09/04 19:19:37;;;;;;;6.63;5.67;;;18.80;71.20;;;;;;10498615;28;20224;-67
2021/09/04 19:25:00;;;;;;;6.33;5.23;;;18.80;70.90;;;;;;10499286;28;20208;-67
2021/09/04 19:30:24;;;;;;;6.53;5.47;;;18.80;70.90;;;;;;10497452;28;20702;-67
2021/09/04 19:35:46;;;;;;;6.77;5.83;;;18.80;70.90;;;;;;10498855;28;20212;-67
2021/09/04 19:41:08;;;;;;;6.57;5.50;;;18.80;70.90;;;;;;10497045;28;20209;-67
2021/09/04 19:46:32;;;;;;;7.53;5.87;;;18.80;71.00;;;;;;10497903;28;20188;-66
2021/09/04 19:51:54;;;;;;;6.67;5.30;;;18.80;71.00;;;;;;10456891;28;20209;-66
2021/09/04 19:57:16;;;;;;;6.87;6.10;;;18.70;71.00;;;;;;10456278;28;20213;-66
2021/09/04 20:02:40;;;;;;;7.40;6.37;;;18.80;71.20;;;;;;10456542;28;20217;-67
2021/09/04 20:08:02;;;;;;;6.93;6.03;;;18.80;71.10;;;;;;10496880;28;20685;-66
2021/09/04 20:13:24;;;;;;;7.87;6.30;;;18.80;71.10;;;;;;10519799;22;20231;-67
2021/09/04 20:18:47;;;;;;;6.60;5.90;;;18.80;71.10;;;;;;10464831;28;20204;-65
2021/09/04 20:24:10;;;;;;;9.60;6.40;;;18.80;71.10;;;;;;10456590;28;20660;-68
2021/09/04 20:29:32;;;;;;;7.37;5.77;;;18.80;71.00;;;;;;10455893;28;20232;-67
2021/09/04 20:34:55;;;;;;;7.40;6.20;;;18.80;70.70;;;;;;10455319;28;20212;-68
2021/09/04 20:40:17;;;;;;;7.63;6.27;;;18.80;70.50;;;;;;10454402;28;20691;-67
2021/09/04 20:45:39;;;;;;;8.47;6.53;;;18.70;70.40;;;;;;10455364;28;20178;-67
2021/09/04 20:51:03;;;;;;;7.93;6.53;;;18.80;70.50;;;;;;10453789;28;21006;-67
2021/09/04 20:56:25;;;;;;;7.30;6.50;;;18.70;70.50;;;;;;10454831;28;20205;-67
2021/09/04 21:01:47;;;;;;;7.53;5.60;;;18.70;70.40;;;;;;10454098;28;20284;-66
2021/09/04 21:07:10;;;;;;;7.17;5.87;;;18.80;70.30;;;;;;10454688;28;20197;-66
2021/09/04 21:12:32;;;;;;;7.17;5.23;;;18.70;70.10;;;;;;10454001;28;20221;-67
2021/09/04 21:17:55;;;;;;;6.80;5.30;;;18.70;70.00;;;;;;10454714;28;20222;-67
2021/09/04 21:23:18;;;;;;;7.03;5.50;;;18.70;69.90;;;;;;10455041;28;20224;-67
2021/09/04 21:28:40;;;;;;;8.03;5.50;;;18.70;69.90;;;;;;10455229;28;20189;-67
2021/09/04 21:34:04;;;;;;;6.50;5.03;;;18.70;69.90;;;;;;10463251;28;20589;-67
2021/09/04 21:39:27;;;;;;;5.93;5.07;;;18.70;69.90;;;;;;10492388;28;20220;-67
2021/09/04 21:44:49;;;;;;;5.27;4.50;;;18.70;69.90;;;;;;10454979;28;20649;-66
2021/09/04 21:50:11;;;;;;;7.07;4.53;;;18.70;69.80;;;;;;10453463;28;20692;-67
2021/09/04 21:55:35;;;;;;;7.00;4.63;;;18.70;69.90;;;;;;10452630;28;20632;-67
2021/09/04 22:00:57;;;;;;;7.07;5.20;;;18.70;69.80;;;;;;10420561;28;20225;-66
2021/09/04 22:06:19;;;;;;;7.37;4.80;;;18.70;69.70;;;;;;10415418;28;20197;-66
2021/09/04 22:11:43;;;;;;;6.17;5.00;;;18.70;69.70;;;;;;10460652;28;20213;-67
2021/09/04 22:17:05;;;;;;;5.80;4.90;;;18.70;69.70;;;;;;10452179;28;20216;-67
2021/09/04 22:22:27;;;;;;;5.97;4.73;;;18.70;69.60;;;;;;10451164;28;20224;-67
2021/09/04 22:27:51;;;;;;;6.33;4.73;;;18.70;69.60;;;;;;10454707;28;20664;-67
2021/09/04 22:33:13;;;;;;;6.03;4.93;;;18.70;69.60;;;;;;10472061;28;20220;-67
2021/09/04 22:38:35;;;;;;;9.07;4.90;;;18.70;69.50;;;;;;10492876;28;20668;-66
2021/09/04 22:43:58;;;;;;;5.63;4.87;;;18.70;69.50;;;;;;10450741;28;20184;-67
2021/09/04 22:49:20;;;;;;;6.70;4.93;;;18.70;69.40;;;;;;10452520;28;20225;-68
2021/09/04 22:54:42;;;;;;;7.93;4.53;;;18.60;69.30;;;;;;10451702;28;20230;-68
2021/09/04 23:00:07;;;;;;;6.03;4.70;;;18.70;69.40;;;;;;10451359;28;20244;-68
2021/09/04 23:05:30;;;;;;;6.97;4.83;;;18.70;69.30;;;;;;10480028;28;20549;-67
2021/09/04 23:10:52;;;;;;;5.53;4.53;;;18.70;69.20;;;;;;10473677;28;20224;-67
2021/09/04 23:16:15;;;;;;;6.23;5.07;;;18.70;69.20;;;;;;10450754;28;20232;-67
2021/09/04 23:21:37;;;;;;;5.27;4.40;;;18.70;69.10;;;;;;10451610;28;20216;-66
2021/09/04 23:27:00;;;;;;;6.40;4.60;;;18.70;69.10;;;;;;10451633;28;20181;-66
2021/09/04 23:32:23;;;;;;;6.20;4.33;;;18.70;69.20;;;;;;10450812;28;20220;-67
2021/09/04 23:37:45;;;;;;;6.30;4.47;;;18.60;69.40;;;;;;10451146;28;20263;-68
2021/09/04 23:43:07;;;;;;;6.60;4.27;;;18.70;69.60;;;;;;10450703;28;20222;-68
2021/09/04 23:48:31;;;;;;;6.50;4.50;;;18.70;69.80;;;;;;10451015;28;20189;-67
2021/09/04 23:53:53;;;;;;;5.93;3.97;;;18.70;70.00;;;;;;10454913;28;20724;-66
2021/09/04 23:59:15;;;;;;;6.43;4.10;;;18.70;70.20;;;;;;10456574;28;20225;-66
